Time;durP1;ratioP1;P1;durP2;ratioP2;P2;SDS_P1;SDS_P2;PMS_P1;PMS_P2;Temp;Humidity;BMP_temperature;BMP_pressure;BME280_temperature;BME280_humidity;BME280_pressure;Samples;Min_cycle;Max_cycle;Signal;HPM_P1;HPM_P2
2022/07/07 00:00:07;;;;;;;8.67;3.23;;;17.60;99.90;;;;;;5058434;28;20047;-67
2022/07/07 00:02:33;;;;;;;9.77;3.57;;;17.60;99.90;;;;;;5092754;28;20400;-67
2022/07/07 00:04:59;;;;;;;10.30;3.90;;;17.60;99.90;;;;;;5093275;28;20044;-67
2022/07/07 00:07:25;;;;;;;9.47;3.73;;;17.60;99.90;;;;;;5093476;28;20043;-67
2022/07/07 00:09:51;;;;;;;11.27;2.83;;;17.60;99.90;;;;;;5099138;28;20047;-66
2022/07/07 00:12:17;;;;;;;7.07;3.43;;;17.60;99.90;;;;;;5081373;28;20052;-67
2022/07/07 00:14:43;;;;;;;9.43;3.00;;;17.60;99.90;;;;;;5099432;28;20044;-67
2022/07/07 00:17:09;;;;;;;8.67;2.77;;;17.60;99.90;;;;;;5099703;28;20048;-67
2022/07/07 00:19:35;;;;;;;7.77;2.80;;;17.60;99.90;;;;;;5099304;28;20131;-66
2022/07/07 00:22:01;;;;;;;11.33;2.50;;;17.60;99.90;;;;;;5081918;28;20123;-67
2022/07/07 00:24:27;;;;;;;15.07;3.37;;;17.60;99.90;;;;;;5081730;28;20403;-66
2022/07/07 00:26:53;;;;;;;10.30;2.57;;;17.60;99.90;;;;;;5099331;28;20051;-66
2022/07/07 00:29:18;;;;;;;9.00;2.60;;;17.50;99.90;;;;;;5099601;28;20131;-66
2022/07/07 00:31:44;;;;;;;9.50;2.83;;;17.50;99.90;;;;;;5081425;28;20084;-66
2022/07/07 00:34:10;;;;;;;10.03;3.00;;;17.50;99.90;;;;;;5099607;28;20048;-66
2022/07/07 00:36:39;;;;;;;10.10;3.57;;;17.40;99.90;;;;;;5099338;28;20048;-66
2022/07/07 00:39:05;;;;;;;8.50;2.80;;;17.30;99.90;;;;;;5099613;28;20052;-66
2022/07/07 00:41:30;;;;;;;8.33;3.33;;;17.40;99.90;;;;;;5099428;28;20051;-71
2022/07/07 00:43:56;;;;;;;11.93;3.20;;;17.30;99.90;;;;;;5099557;28;20399;-66
2022/07/07 00:46:23;;;;;;;11.00;3.23;;;17.20;99.90;;;;;;5099481;28;20120;-67
2022/07/07 00:48:48;;;;;;;8.63;3.50;;;17.20;99.90;;;;;;5081349;28;20054;-67
2022/07/07 00:51:15;;;;;;;9.40;3.57;;;17.20;99.90;;;;;;5099455;28;20044;-67
2022/07/07 00:53:40;;;;;;;9.53;3.70;;;17.20;99.90;;;;;;5098568;28;20088;-67
2022/07/07 00:56:06;;;;;;;10.63;3.37;;;17.10;99.90;;;;;;5099074;28;20096;-67
2022/07/07 00:58:36;;;;;;;10.67;3.50;;;17.10;99.90;;;;;;5099250;28;20176;-71
2022/07/07 01:01:03;;;;;;;9.03;3.27;;;17.10;99.90;;;;;;5099259;28;20047;-64
2022/07/07 01:03:29;;;;;;;9.03;3.70;;;17.10;99.90;;;;;;5081492;28;20468;-67
2022/07/07 01:05:56;;;;;;;7.83;3.60;;;17.10;99.90;;;;;;5098913;28;20048;-67
2022/07/07 01:08:21;;;;;;;12.20;3.80;;;17.10;99.90;;;;;;5099290;28;20052;-67
2022/07/07 01:10:47;;;;;;;9.37;3.40;;;17.00;99.90;;;;;;5098962;28;20062;-65
2022/07/07 01:13:13;;;;;;;13.27;3.53;;;17.00;99.90;;;;;;5099389;28;20495;-64
2022/07/07 01:15:39;;;;;;;12.03;4.00;;;17.00;99.90;;;;;;5098905;28;20113;-64
2022/07/07 01:18:06;;;;;;;9.97;4.00;;;17.00;99.90;;;;;;5098893;28;20111;-64
2022/07/07 01:20:33;;;;;;;13.30;4.20;;;17.00;99.90;;;;;;5096786;28;20087;-64
2022/07/07 01:22:58;;;;;;;11.10;3.97;;;17.00;99.90;;;;;;5095702;28;20056;-64
2022/07/07 01:25:24;;;;;;;10.97;4.30;;;17.00;99.90;;;;;;5096125;28;20070;-64
2022/07/07 01:27:51;;;;;;;10.47;3.07;;;17.00;99.90;;;;;;5095307;28;20055;-65
2022/07/07 01:30:18;;;;;;;13.83;4.33;;;16.90;99.90;;;;;;5095505;28;20567;-65
2022/07/07 01:32:44;;;;;;;14.40;3.70;;;17.00;99.90;;;;;;5095140;28;20507;-65
2022/07/07 01:35:10;;;;;;;8.10;3.60;;;16.90;99.90;;;;;;5077402;28;20040;-65
2022/07/07 01:37:36;;;;;;;12.27;3.83;;;16.90;99.90;;;;;;5095730;28;20166;-67
2022/07/07 01:40:03;;;;;;;11.20;3.73;;;17.00;99.90;;;;;;5095867;28;20044;-65
2022/07/07 01:42:29;;;;;;;12.13;4.17;;;16.90;99.90;;;;;;5077682;28;20083;-64
2022/07/07 01:44:55;;;;;;;14.73;4.30;;;16.90;99.90;;;;;;5095286;28;20090;-64
2022/07/07 01:47:23;;;;;;;12.33;3.60;;;16.90;99.90;;;;;;5095444;28;20048;-65
2022/07/07 01:49:49;;;;;;;12.77;4.00;;;16.90;99.90;;;;;;5095151;28;20101;-65
2022/07/07 01:52:15;;;;;;;14.57;3.63;;;16.90;99.90;;;;;;5095240;28;20052;-65
2022/07/07 01:54:41;;;;;;;12.73;3.90;;;17.00;99.90;;;;;;5095205;28;20056;-65
2022/07/07 01:57:08;;;;;;;11.97;3.47;;;17.00;99.90;;;;;;5095245;28;20441;-65
2022/07/07 01:59:35;;;;;;;14.77;3.20;;;17.00;99.90;;;;;;5077136;28;20040;-65
2022/07/07 02:02:01;;;;;;;13.80;3.67;;;17.00;99.90;;;;;;5094875;28;20084;-65
2022/07/07 02:04:26;;;;;;;16.50;3.57;;;17.00;99.90;;;;;;5095199;28;20137;-65
2022/07/07 02:06:52;;;;;;;13.93;2.80;;;17.00;99.90;;;;;;5094860;28;20051;-65
2022/07/07 02:09:18;;;;;;;13.03;2.90;;;17.00;99.90;;;;;;5095315;28;20040;-65
2022/07/07 02:11:44;;;;;;;14.77;3.20;;;17.00;99.90;;;;;;5094712;28;20119;-65
2022/07/07 02:14:10;;;;;;;6.90;2.60;;;17.00;99.90;;;;;;5077246;28;20392;-65
2022/07/07 02:16:36;;;;;;;9.47;2.77;;;16.90;99.90;;;;;;5094896;28;20182;-65
2022/07/07 02:19:04;;;;;;;10.87;2.50;;;16.90;99.90;;;;;;5094363;28;20484;-65
2022/07/07 02:21:30;;;;;;;9.67;2.80;;;16.90;99.90;;;;;;5094755;28;20095;-65
2022/07/07 02:23:57;;;;;;;10.73;2.33;;;16.90;99.90;;;;;;5094530;28;20066;-65
2022/07/07 02:26:22;;;;;;;12.70;2.37;;;16.90;99.90;;;;;;5094710;28;20051;-65
2022/07/07 02:28:49;;;;;;;14.27;3.10;;;16.90;99.90;;;;;;5094470;28;20403;-65
2022/07/07 02:31:15;;;;;;;12.20;2.87;;;16.80;99.90;;;;;;5094145;28;20455;-65
2022/07/07 02:33:41;;;;;;;12.13;2.80;;;16.90;99.90;;;;;;5094623;28;20108;-65
2022/07/07 02:36:07;;;;;;;11.17;2.77;;;16.80;99.90;;;;;;5094322;28;20131;-65
2022/07/07 02:38:35;;;;;;;15.00;2.93;;;16.80;99.90;;;;;;5094509;28;20043;-65
2022/07/07 02:41:02;;;;;;;13.27;2.90;;;16.80;99.90;;;;;;5094077;28;20040;-65
2022/07/07 02:43:28;;;;;;;9.13;2.60;;;16.80;99.90;;;;;;5094344;28;20101;-65
2022/07/07 02:45:54;;;;;;;13.33;2.70;;;16.80;99.90;;;;;;5094073;28;20040;-65
2022/07/07 02:48:22;;;;;;;10.83;2.90;;;16.80;99.90;;;;;;5094358;28;20140;-65
2022/07/07 02:50:48;;;;;;;13.47;3.40;;;16.80;99.90;;;;;;5093969;28;20052;-65
2022/07/07 02:53:15;;;;;;;12.30;3.30;;;16.80;99.90;;;;;;5094428;28;20060;-65
2022/07/07 02:55:41;;;;;;;16.83;3.27;;;16.80;99.90;;;;;;5093836;28;20484;-64
2022/07/07 02:58:08;;;;;;;15.00;3.13;;;16.80;99.90;;;;;;5093847;28;20052;-64
2022/07/07 03:00:35;;;;;;;12.27;3.30;;;16.80;99.90;;;;;;5094132;28;20138;-64
2022/07/07 03:03:03;;;;;;;14.07;3.17;;;16.80;99.90;;;;;;5094059;28;20113;-65
2022/07/07 03:05:30;;;;;;;16.03;3.50;;;16.80;99.90;;;;;;5093955;28;20036;-64
2022/07/07 03:07:55;;;;;;;20.43;3.23;;;16.80;99.90;;;;;;5093663;28;20043;-64
2022/07/07 03:10:22;;;;;;;13.63;2.67;;;16.80;99.90;;;;;;5093897;28;20036;-64
2022/07/07 03:12:48;;;;;;;13.27;3.20;;;16.80;99.90;;;;;;5093617;28;20039;-69
2022/07/07 03:15:14;;;;;;;11.20;2.97;;;16.80;99.90;;;;;;5093822;28;20080;-64
2022/07/07 03:17:44;;;;;;;14.00;3.40;;;16.80;99.90;;;;;;5075822;28;20039;-64
2022/07/07 03:20:11;;;;;;;14.60;2.83;;;16.80;99.90;;;;;;5092971;28;20561;-64
2022/07/07 03:27:44;;;;;;;14.80;3.00;;;16.70;99.90;;;;;;4953384;29;19922;-64
2022/07/07 03:30:11;;;;;;;17.77;2.60;;;16.70;99.90;;;;;;4954856;29;20458;-65
2022/07/07 03:32:37;;;;;;;11.30;2.23;;;16.70;99.90;;;;;;4955445;29;20047;-64
2022/07/07 03:35:04;;;;;;;11.03;2.97;;;16.60;99.90;;;;;;4955148;29;20391;-64
2022/07/07 03:37:32;;;;;;;10.57;2.00;;;16.60;99.90;;;;;;4954623;29;20483;-64
2022/07/07 03:39:57;;;;;;;13.83;2.80;;;16.60;99.90;;;;;;4955226;29;20043;-64
2022/07/07 03:42:23;;;;;;;9.90;2.17;;;16.60;99.90;;;;;;4954454;28;20054;-64
2022/07/07 03:44:49;;;;;;;5.93;1.50;;;16.60;99.90;;;;;;4954636;28;20106;-64
2022/07/07 03:47:15;;;;;;;8.27;1.33;;;16.50;99.90;;;;;;4954723;29;20079;-65
2022/07/07 03:49:41;;;;;;;8.27;2.20;;;16.40;99.90;;;;;;4954880;28;20046;-65
2022/07/07 03:52:07;;;;;;;7.90;1.73;;;16.40;99.90;;;;;;4954646;29;20379;-65
2022/07/07 03:54:33;;;;;;;8.73;2.00;;;16.30;99.90;;;;;;4953521;29;20055;-65
2022/07/07 03:56:59;;;;;;;9.93;1.80;;;16.30;99.90;;;;;;4953872;29;20106;-65
2022/07/07 03:59:24;;;;;;;7.80;1.97;;;16.20;99.90;;;;;;4953489;29;20130;-65
2022/07/07 04:01:50;;;;;;;8.93;2.00;;;16.20;99.90;;;;;;4954655;28;20051;-65
2022/07/07 04:04:16;;;;;;;5.93;1.50;;;16.20;99.90;;;;;;4937690;29;20066;-65
2022/07/07 04:06:42;;;;;;;10.83;1.80;;;16.20;99.90;;;;;;4954655;29;20058;-65
2022/07/07 04:09:08;;;;;;;8.83;2.20;;;16.20;99.90;;;;;;4953720;29;20047;-65
2022/07/07 04:11:34;;;;;;;7.53;1.47;;;16.20;99.90;;;;;;4953650;29;20055;-64
2022/07/07 04:13:59;;;;;;;4.53;1.30;;;16.20;99.90;;;;;;4954656;29;20125;-65
2022/07/07 04:16:27;;;;;;;5.83;1.17;;;16.20;99.90;;;;;;4937365;29;20139;-65
2022/07/07 04:18:53;;;;;;;1.37;0.77;;;16.10;99.90;;;;;;4954587;28;20051;-64
2022/07/07 04:21:19;;;;;;;2.50;0.80;;;16.00;99.90;;;;;;4954150;28;20043;-65
2022/07/07 04:23:44;;;;;;;4.50;0.80;;;15.90;99.90;;;;;;4954558;28;20051;-64
2022/07/07 04:26:10;;;;;;;4.23;1.17;;;15.90;99.90;;;;;;4954401;29;20110;-64
2022/07/07 04:28:35;;;;;;;3.53;0.80;;;15.80;99.90;;;;;;4953385;29;20390;-65
2022/07/07 04:31:01;;;;;;;6.40;1.00;;;15.80;99.90;;;;;;4953380;29;20039;-65
2022/07/07 04:33:27;;;;;;;3.40;1.00;;;15.90;99.90;;;;;;4954235;28;20050;-65
2022/07/07 04:35:52;;;;;;;6.67;1.20;;;15.90;99.90;;;;;;4937375;29;20054;-65
2022/07/07 04:38:18;;;;;;;7.00;1.00;;;15.90;99.90;;;;;;4954015;28;20047;-65
2022/07/07 04:40:44;;;;;;;5.13;1.30;;;16.00;99.90;;;;;;4954157;28;20047;-65
2022/07/07 04:43:09;;;;;;;5.67;1.20;;;16.10;99.90;;;;;;4954444;28;20047;-65
2022/07/07 04:45:35;;;;;;;10.40;1.50;;;16.10;99.90;;;;;;4954066;28;20058;-65
2022/07/07 04:48:01;;;;;;;7.23;1.90;;;16.10;99.90;;;;;;4954407;29;20051;-65
2022/07/07 04:50:27;;;;;;;10.77;1.90;;;16.10;99.90;;;;;;4953112;29;20056;-65
2022/07/07 04:52:53;;;;;;;10.03;1.70;;;16.10;99.90;;;;;;4953310;29;20126;-65
2022/07/07 04:55:19;;;;;;;12.00;2.07;;;16.10;99.90;;;;;;4956655;28;20051;-66
2022/07/07 04:57:45;;;;;;;11.63;2.27;;;16.10;99.90;;;;;;4958034;29;20502;-65
2022/07/07 05:00:11;;;;;;;16.17;2.67;;;16.20;99.90;;;;;;4957785;29;20043;-67
2022/07/07 05:02:37;;;;;;;15.90;3.20;;;16.30;99.90;;;;;;4956463;29;20158;-67
2022/07/07 05:05:06;;;;;;;16.07;3.53;;;16.40;99.90;;;;;;4957791;29;20129;-67
2022/07/07 05:07:32;;;;;;;13.03;2.90;;;16.40;99.90;;;;;;4957676;28;20069;-65
2022/07/07 05:09:58;;;;;;;13.33;2.83;;;16.40;99.90;;;;;;4958137;29;20047;-65
2022/07/07 05:12:23;;;;;;;11.80;2.57;;;16.30;99.90;;;;;;4957525;28;20126;-65
2022/07/07 05:14:49;;;;;;;12.87;2.60;;;16.20;99.90;;;;;;4956562;29;20138;-65
2022/07/07 05:17:15;;;;;;;11.90;3.10;;;16.20;99.90;;;;;;4957622;29;20137;-65
2022/07/07 05:19:40;;;;;;;11.40;3.03;;;16.20;99.90;;;;;;4957276;28;20110;-65
2022/07/07 05:22:07;;;;;;;14.80;2.63;;;16.30;99.90;;;;;;4957459;29;20487;-65
2022/07/07 05:24:33;;;;;;;9.80;2.73;;;16.40;99.90;;;;;;4957382;28;20043;-65
2022/07/07 05:26:59;;;;;;;10.13;2.50;;;16.60;99.90;;;;;;4957266;28;20577;-65
2022/07/07 05:29:25;;;;;;;8.83;2.33;;;16.80;99.90;;;;;;4957163;28;20521;-65
2022/07/07 05:31:50;;;;;;;10.57;2.70;;;16.90;99.90;;;;;;4956179;29;20055;-65
2022/07/07 05:34:16;;;;;;;15.80;2.57;;;17.10;99.90;;;;;;4956269;29;20047;-65
2022/07/07 05:36:41;;;;;;;11.30;2.93;;;17.30;99.90;;;;;;4956861;28;20047;-65
2022/07/07 05:39:07;;;;;;;18.00;3.10;;;17.50;99.90;;;;;;4956263;29;20137;-65
2022/07/07 05:41:33;;;;;;;14.87;3.20;;;17.70;99.90;;;;;;4957044;28;20039;-65
2022/07/07 05:43:58;;;;;;;13.50;2.77;;;17.90;99.90;;;;;;4956076;29;20510;-64
2022/07/07 05:46:24;;;;;;;9.27;2.20;;;17.90;99.90;;;;;;4955694;29;20050;-65
2022/07/07 05:48:50;;;;;;;9.63;2.50;;;17.80;99.90;;;;;;4957125;28;20091;-65
2022/07/07 05:51:15;;;;;;;8.77;1.73;;;17.60;99.90;;;;;;4956129;29;20395;-64
2022/07/07 05:53:41;;;;;;;7.13;1.90;;;17.50;99.90;;;;;;4956822;29;20102;-66
2022/07/07 05:56:07;;;;;;;8.13;1.80;;;17.80;99.90;;;;;;4956980;29;20054;-66
2022/07/07 05:58:33;;;;;;;10.27;2.23;;;18.10;99.90;;;;;;4955534;29;20062;-66
2022/07/07 06:00:58;;;;;;;11.37;1.90;;;19.80;99.90;;;;;;4955696;29;20399;-66
2022/07/07 06:03:25;;;;;;;9.03;2.20;;;;;;;;;;4956773;28;20137;-69
2022/07/07 06:05:50;;;;;;;7.70;2.23;;;21.30;99.90;;;;;;4955906;28;20066;-66
2022/07/07 06:08:18;;;;;;;8.83;1.70;;;21.50;99.90;;;;;;4957063;29;20047;-66
2022/07/07 06:10:43;;;;;;;11.37;1.60;;;21.20;99.90;;;;;;4956466;29;20043;-67
2022/07/07 06:13:09;;;;;;;11.63;2.10;;;;;;;;;;4955612;29;20055;-67
2022/07/07 06:15:35;;;;;;;6.90;1.83;;;19.70;99.90;;;;;;4956300;29;20132;-67
2022/07/07 06:18:04;;;;;;;9.00;2.43;;;19.70;99.90;;;;;;4956474;29;20055;-66
2022/07/07 06:20:30;;;;;;;9.40;2.53;;;18.90;99.90;;;;;;4954928;29;20479;-66
2022/07/07 06:22:56;;;;;;;8.73;1.77;;;18.90;99.90;;;;;;4955659;29;20051;-66
2022/07/07 06:25:22;;;;;;;9.10;2.00;;;18.60;99.90;;;;;;4955281;29;20069;-65
2022/07/07 06:27:48;;;;;;;8.40;2.13;;;18.70;99.90;;;;;;4956021;29;20503;-66
2022/07/07 06:30:14;;;;;;;7.57;1.97;;;21.10;99.90;;;;;;4956237;29;20043;-66
2022/07/07 06:32:39;;;;;;;7.93;2.10;;;21.40;99.90;;;;;;4955997;29;20043;-66
2022/07/07 06:35:06;;;;;;;9.47;1.97;;;22.20;99.90;;;;;;4939630;29;20403;-66
2022/07/07 06:37:32;;;;;;;7.07;1.50;;;22.20;99.90;;;;;;4956048;28;20479;-66
2022/07/07 06:39:58;;;;;;;6.33;1.70;;;22.10;99.90;;;;;;4956062;28;20043;-65
2022/07/07 06:42:23;;;;;;;5.87;1.50;;;21.90;99.90;;;;;;4956122;29;20058;-65
2022/07/07 06:44:49;;;;;;;5.33;1.63;;;22.90;99.90;;;;;;4955778;28;20051;-66
2022/07/07 06:47:15;;;;;;;4.70;1.30;;;24.10;99.90;;;;;;4955900;29;20058;-66
2022/07/07 06:49:40;;;;;;;7.47;1.47;;;25.00;99.90;;;;;;4955523;28;20058;-66
2022/07/07 06:52:06;;;;;;;5.43;1.40;;;25.60;99.90;;;;;;4954954;29;20059;-66
2022/07/07 06:54:32;;;;;;;7.50;1.57;;;;;;;;;;4955601;29;20135;-66
2022/07/07 06:56:58;;;;;;;6.97;1.77;;;24.80;99.90;;;;;;4958070;28;20055;-67
2022/07/07 06:59:24;;;;;;;4.27;1.40;;;23.30;98.60;;;;;;4963380;28;20109;-66
2022/07/07 07:01:50;;;;;;;8.97;1.73;;;22.60;98.90;;;;;;4955306;29;20039;-66
2022/07/07 07:04:16;;;;;;;8.50;2.00;;;;;;;;;;4955584;28;20110;-66
2022/07/07 07:06:42;;;;;;;7.87;2.23;;;21.80;99.90;;;;;;4954467;29;20058;-66
2022/07/07 07:09:09;;;;;;;6.27;1.80;;;20.80;99.90;;;;;;4955630;28;20113;-65
2022/07/07 07:11:35;;;;;;;10.90;2.00;;;20.60;99.90;;;;;;4954345;29;20351;-66
2022/07/07 07:14:02;;;;;;;9.87;2.17;;;20.00;99.90;;;;;;4955509;28;20047;-66
2022/07/07 07:16:29;;;;;;;8.50;2.50;;;19.60;99.90;;;;;;4955351;28;20099;-65
2022/07/07 07:18:54;;;;;;;8.17;1.90;;;19.30;99.90;;;;;;4954230;28;20055;-66
2022/07/07 07:21:20;;;;;;;11.70;2.60;;;19.20;99.90;;;;;;4955332;29;20537;-65
2022/07/07 07:23:46;;;;;;;7.50;1.93;;;19.50;99.90;;;;;;4955157;28;20055;-66
2022/07/07 07:26:12;;;;;;;8.63;2.20;;;19.70;99.90;;;;;;4954137;29;20059;-66
2022/07/07 07:28:38;;;;;;;7.40;1.70;;;19.70;99.90;;;;;;4955086;29;20055;-66
2022/07/07 07:31:04;;;;;;;9.63;2.27;;;19.60;99.90;;;;;;4953988;29;20098;-66
2022/07/07 07:33:31;;;;;;;8.33;1.93;;;19.50;99.90;;;;;;4954559;29;20090;-65
2022/07/07 07:35:57;;;;;;;6.23;1.93;;;20.00;99.90;;;;;;4954947;28;20055;-66
2022/07/07 07:38:24;;;;;;;4.50;1.50;;;20.40;99.90;;;;;;4955358;28;20043;-66
2022/07/07 07:40:49;;;;;;;6.63;1.30;;;20.60;99.90;;;;;;4937672;29;20078;-66
2022/07/07 07:43:15;;;;;;;9.60;2.00;;;20.80;99.90;;;;;;4954995;28;20087;-66
2022/07/07 07:45:41;;;;;;;6.13;1.70;;;20.90;99.90;;;;;;4954524;29;20066;-66
2022/07/07 07:48:07;;;;;;;6.33;1.67;;;21.20;99.90;;;;;;4955082;28;20062;-66
2022/07/07 07:50:33;;;;;;;5.33;1.30;;;21.50;99.90;;;;;;4955098;28;20047;-66
2022/07/07 07:53:02;;;;;;;5.73;1.57;;;22.10;99.90;;;;;;4954762;28;20055;-66
2022/07/07 07:55:28;;;;;;;6.20;1.40;;;22.10;99.90;;;;;;4954811;28;20049;-66
2022/07/07 07:57:53;;;;;;;7.00;1.93;;;21.60;99.90;;;;;;4954537;29;20561;-67
2022/07/07 08:00:22;;;;;;;5.10;1.23;;;21.20;99.90;;;;;;4954721;29;20075;-66
2022/07/07 08:02:48;;;;;;;4.53;1.43;;;20.70;99.90;;;;;;4953471;29;20486;-66
2022/07/07 08:05:15;;;;;;;6.90;2.00;;;20.50;99.90;;;;;;4954875;28;20411;-66
2022/07/07 08:07:42;;;;;;;8.43;2.17;;;20.20;99.90;;;;;;4953646;29;20122;-66
2022/07/07 08:10:10;;;;;;;7.97;1.90;;;20.00;99.90;;;;;;4954648;28;20487;-66
2022/07/07 08:12:37;;;;;;;8.00;2.30;;;19.80;99.90;;;;;;4954748;28;20114;-66
2022/07/07 08:15:03;;;;;;;7.80;1.87;;;19.60;99.90;;;;;;4953389;29;20093;-66
2022/07/07 08:17:29;;;;;;;10.60;2.47;;;19.50;99.90;;;;;;4957214;28;20055;-65
2022/07/07 08:19:55;;;;;;;8.37;1.93;;;19.60;99.90;;;;;;4937397;29;20058;-66
2022/07/07 08:22:20;;;;;;;10.67;2.43;;;19.70;99.90;;;;;;4954603;29;20051;-66
2022/07/07 08:24:46;;;;;;;11.80;2.23;;;20.10;99.90;;;;;;4954265;29;20513;-66
2022/07/07 08:27:12;;;;;;;8.07;2.20;;;20.20;99.90;;;;;;4954751;29;20059;-67
2022/07/07 08:29:38;;;;;;;9.63;2.67;;;20.20;99.90;;;;;;4954658;28;20046;-66
2022/07/07 08:32:08;;;;;;;8.13;2.13;;;20.20;99.90;;;;;;4957137;29;20138;-67
2022/07/07 08:34:34;;;;;;;9.93;2.40;;;20.10;99.90;;;;;;4957286;29;20376;-66
2022/07/07 08:37:00;;;;;;;10.77;2.73;;;20.00;99.90;;;;;;4958058;29;20513;-66
2022/07/07 08:39:26;;;;;;;10.23;2.20;;;20.00;99.90;;;;;;4958262;29;20047;-67
2022/07/07 08:41:52;;;;;;;10.17;2.27;;;19.90;99.90;;;;;;4957893;28;20376;-68
2022/07/07 08:44:18;;;;;;;6.57;2.10;;;19.90;99.90;;;;;;4957994;29;20491;-66
2022/07/07 08:46:44;;;;;;;9.47;2.47;;;19.90;99.90;;;;;;4958080;28;20051;-69
2022/07/07 08:49:10;;;;;;;7.87;2.50;;;20.20;99.90;;;;;;4958394;28;20098;-67
2022/07/07 08:51:43;;;;;;;7.20;2.40;;;20.80;99.90;;;;;;4958108;29;20047;-67
2022/07/07 08:54:11;;;;;;;3.93;1.60;;;21.20;99.90;;;;;;4956877;29;20054;-67
2022/07/07 08:56:40;;;;;;;7.67;2.43;;;21.40;99.90;;;;;;4956943;29;20051;-68
2022/07/07 08:59:08;;;;;;;14.67;2.90;;;21.20;99.90;;;;;;4957783;29;20051;-66
2022/07/07 09:01:34;;;;;;;10.07;2.40;;;20.80;99.90;;;;;;4956790;29;20076;-66
2022/07/07 09:04:01;;;;;;;9.50;2.60;;;20.30;99.90;;;;;;4957855;28;20130;-66
2022/07/07 09:06:27;;;;;;;6.73;1.90;;;20.00;99.90;;;;;;4956833;29;20047;-66
2022/07/07 09:08:54;;;;;;;9.07;2.70;;;19.70;99.90;;;;;;4957698;28;20050;-66
2022/07/07 09:11:34;;;;;;;6.80;1.80;;;19.70;99.90;;;;;;4956567;29;20047;-66
2022/07/07 09:14:14;;;;;;;7.33;2.13;;;19.70;99.90;;;;;;4956437;29;20051;-67
2022/07/07 09:16:40;;;;;;;10.33;2.07;;;19.90;99.90;;;;;;4956641;29;20062;-67
2022/07/07 09:19:18;;;;;;;11.57;2.17;;;20.10;99.90;;;;;;4956413;29;20786;-66
2022/07/07 09:21:43;;;;;;;9.27;1.73;;;20.00;99.90;;;;;;4956281;29;20046;-66
2022/07/07 09:24:09;;;;;;;9.97;2.13;;;20.00;99.90;;;;;;4956449;29;20130;-66
2022/07/07 09:26:44;;;;;;;6.10;1.60;;;19.90;99.90;;;;;;4957443;29;20080;-67
2022/07/07 09:29:14;;;;;;;6.57;1.77;;;19.80;99.90;;;;;;4956203;29;20063;-69
2022/07/07 09:31:57;;;;;;;8.37;1.60;;;19.60;99.90;;;;;;4957673;28;20082;-70
2022/07/07 09:34:37;;;;;;;9.00;1.80;;;19.60;99.90;;;;;;4957465;28;20061;-70
2022/07/07 09:39:55;;;;;;;7.57;1.83;;;19.80;99.90;;;;;;4956039;28;20106;-70
2022/07/07 09:42:30;;;;;;;9.73;1.83;;;19.60;99.90;;;;;;4955948;29;20491;-70
2022/07/07 09:45:00;;;;;;;11.77;2.00;;;19.50;99.90;;;;;;4957017;28;20055;-69
2022/07/07 09:47:26;;;;;;;11.83;2.00;;;19.40;99.90;;;;;;4956275;29;20086;-68
2022/07/07 09:50:00;;;;;;;6.47;1.80;;;19.20;99.90;;;;;;4956856;28;20047;-70
2022/07/07 09:52:27;;;;;;;5.25;1.60;;;19.10;99.90;;;;;;4957047;29;20059;-70
2022/07/07 09:54:53;;;;;;;6.50;1.70;;;19.00;99.90;;;;;;4956560;28;20047;-67
2022/07/07 09:57:19;;;;;;;6.30;1.77;;;19.10;99.90;;;;;;4956017;29;20110;-66
2022/07/07 09:59:45;;;;;;;6.97;1.80;;;19.50;99.90;;;;;;4957038;29;20051;-66
2022/07/07 10:02:23;;;;;;;6.97;2.10;;;19.90;99.90;;;;;;4956760;28;20403;-67
2022/07/07 10:04:55;;;;;;;6.50;1.90;;;20.00;99.90;;;;;;4956813;28;20459;-67
2022/07/07 10:07:24;;;;;;;9.33;2.27;;;20.10;99.90;;;;;;4956714;28;20047;-70
2022/07/07 10:09:55;;;;;;;9.37;2.00;;;19.90;99.90;;;;;;4956614;28;20050;-69
2022/07/07 10:12:24;;;;;;;9.53;2.40;;;19.70;99.90;;;;;;4956984;28;20043;-69
2022/07/07 10:15:02;;;;;;;10.83;2.70;;;19.50;99.90;;;;;;4956458;28;20499;-69
2022/07/07 10:17:28;;;;;;;12.07;2.67;;;19.50;99.90;;;;;;4956644;28;20376;-69
2022/07/07 10:19:55;;;;;;;10.23;2.10;;;19.60;99.90;;;;;;4956065;28;20051;-69
2022/07/07 10:22:26;;;;;;;10.53;2.63;;;19.60;99.90;;;;;;4956455;29;20086;-67
2022/07/07 10:24:56;;;;;;;12.10;2.30;;;19.50;99.90;;;;;;4956595;28;20403;-67
2022/07/07 10:27:24;;;;;;;10.07;2.73;;;19.40;99.90;;;;;;4956301;28;20146;-67
2022/07/07 10:29:56;;;;;;;12.07;2.87;;;19.20;99.90;;;;;;4955367;29;20159;-66
2022/07/07 10:32:29;;;;;;;9.63;2.37;;;19.20;99.90;;;;;;4956319;28;20511;-68
2022/07/07 10:34:56;;;;;;;14.37;3.40;;;19.10;99.90;;;;;;4956293;28;20051;-69
2022/07/07 10:37:24;;;;;;;12.47;2.57;;;19.00;99.90;;;;;;4956454;28;20532;-67
2022/07/07 10:39:53;;;;;;;11.97;3.13;;;19.00;99.90;;;;;;4956205;28;20073;-65
2022/07/07 10:42:37;;;;;;;17.83;3.10;;;18.90;99.90;;;;;;4956019;28;20043;-65
2022/07/07 10:45:04;;;;;;;11.93;2.80;;;18.90;99.90;;;;;;4954658;29;20091;-66
2022/07/07 10:47:32;;;;;;;16.10;3.90;;;19.00;99.90;;;;;;4956237;28;20043;-65
2022/07/07 10:49:58;;;;;;;16.50;4.17;;;18.90;99.90;;;;;;4938695;29;20498;-66
2022/07/07 10:52:38;;;;;;;18.87;3.40;;;18.80;99.90;;;;;;4954446;28;20046;-66
2022/07/07 10:55:04;;;;;;;17.00;4.23;;;18.70;99.90;;;;;;4954837;29;20058;-67
2022/07/07 10:57:44;;;;;;;22.37;4.47;;;18.70;99.90;;;;;;4955712;28;20058;-67
2022/07/07 11:00:18;;;;;;;15.33;3.60;;;18.60;99.90;;;;;;4954743;29;20555;-67
2022/07/07 11:03:07;;;;;;;15.13;3.58;;;18.60;99.90;;;;;;4955873;28;20051;-66
2022/07/07 11:05:34;;;;;;;15.10;3.30;;;18.70;99.90;;;;;;4954723;29;20126;-67
2022/07/07 11:08:00;;;;;;;15.67;3.43;;;18.80;99.90;;;;;;4955248;28;20047;-68
2022/07/07 11:10:46;;;;;;;14.93;3.53;;;19.00;99.90;;;;;;4955074;29;20526;-66
2022/07/07 11:13:18;;;;;;;15.60;3.17;;;19.20;99.90;;;;;;4955523;28;20109;-67
2022/07/07 11:15:45;;;;;;;18.63;4.10;;;19.30;99.90;;;;;;4954769;29;20487;-67
2022/07/07 11:18:14;;;;;;;13.77;2.70;;;19.40;99.90;;;;;;4955278;28;20047;-66
2022/07/07 11:20:55;;;;;;;12.63;3.30;;;19.50;99.90;;;;;;4955434;28;20051;-67
2022/07/07 11:23:22;;;;;;;11.13;2.87;;;19.70;99.90;;;;;;4955251;28;20126;-67
2022/07/07 11:25:48;;;;;;;13.93;3.30;;;19.80;99.90;;;;;;4955423;28;20058;-67
2022/07/07 11:28:14;;;;;;;14.27;2.60;;;19.90;99.90;;;;;;4953526;29;20487;-68
2022/07/07 11:30:40;;;;;;;12.57;3.00;;;20.00;99.90;;;;;;4953960;29;20106;-67
2022/07/07 11:33:06;;;;;;;13.50;2.83;;;20.10;99.90;;;;;;4937872;29;20062;-68
2022/07/07 11:35:36;;;;;;;14.37;3.20;;;20.00;99.30;;;;;;4955293;28;20062;-67
2022/07/07 11:38:04;;;;;;;10.37;3.07;;;19.90;98.30;;;;;;4953990;29;20094;-71
2022/07/07 11:40:31;;;;;;;10.13;2.70;;;19.90;97.90;;;;;;4954441;29;20388;-67
2022/07/07 11:43:00;;;;;;;12.40;3.33;;;20.00;97.20;;;;;;4955331;29;20459;-67
2022/07/07 11:45:28;;;;;;;13.17;3.43;;;20.00;97.30;;;;;;4953652;29;20091;-67
2022/07/07 11:47:59;;;;;;;11.53;3.03;;;20.10;98.00;;;;;;4955167;28;20058;-67
2022/07/07 11:50:28;;;;;;;12.90;2.77;;;20.10;98.10;;;;;;4953599;29;20051;-67
2022/07/07 11:52:59;;;;;;;13.90;3.47;;;20.10;97.20;;;;;;4953932;29;20134;-67
2022/07/07 11:55:25;;;;;;;19.90;3.23;;;20.10;96.80;;;;;;4954688;28;20093;-67
2022/07/07 11:57:57;;;;;;;15.20;3.07;;;20.00;96.40;;;;;;4954841;28;20122;-68
2022/07/07 12:00:25;;;;;;;15.07;3.47;;;19.80;96.40;;;;;;4953539;29;20455;-67
2022/07/07 12:02:52;;;;;;;12.87;3.13;;;19.60;96.70;;;;;;4954756;28;20066;-67
2022/07/07 12:05:23;;;;;;;21.33;3.33;;;19.60;97.90;;;;;;4954028;28;20059;-68
2022/07/07 12:08:06;;;;;;;19.47;3.43;;;19.40;98.10;;;;;;4954390;28;20403;-67
2022/07/07 12:10:37;;;;;;;16.10;3.47;;;19.20;96.40;;;;;;4951840;29;20050;-68
2022/07/07 12:13:12;;;;;;;12.20;3.50;;;19.10;99.20;;;;;;4954190;28;20146;-66
2022/07/07 12:15:49;;;;;;;15.85;3.28;;;19.10;99.60;;;;;;4954002;29;20051;-67
2022/07/07 12:18:40;;;;;;;17.40;3.70;;;19.10;99.80;;;;;;4954385;28;20043;-67
2022/07/07 12:21:08;;;;;;;20.23;4.10;;;19.00;99.90;;;;;;4953300;29;20499;-67
2022/07/07 12:23:44;;;;;;;17.07;4.67;;;19.00;99.90;;;;;;4954547;28;20507;-67
2022/07/07 12:26:18;;;;;;;17.20;3.40;;;19.00;99.90;;;;;;4954133;28;20186;-68
2022/07/07 12:28:44;;;;;;;13.30;3.40;;;19.10;99.90;;;;;;4954684;28;20466;-67
2022/07/07 12:31:18;;;;;;;16.77;3.30;;;19.20;99.90;;;;;;4954385;28;20043;-68
2022/07/07 12:33:44;;;;;;;14.90;2.93;;;19.20;99.90;;;;;;4954769;28;20109;-68
2022/07/07 12:36:24;;;;;;;12.07;3.10;;;19.40;99.90;;;;;;4954394;29;20371;-68
2022/07/07 12:38:55;;;;;;;21.97;3.70;;;19.40;99.90;;;;;;4954698;28;20387;-68
2022/07/07 12:41:24;;;;;;;14.87;3.97;;;19.60;99.90;;;;;;4954120;28;20400;-66
2022/07/07 12:43:50;;;;;;;14.70;2.87;;;19.60;99.50;;;;;;4954331;28;20153;-66
2022/07/07 12:46:16;;;;;;;12.23;2.93;;;19.50;98.30;;;;;;4954245;28;20591;-68
2022/07/07 12:48:44;;;;;;;12.00;3.20;;;19.50;96.30;;;;;;4954588;29;20043;-66
2022/07/07 12:51:10;;;;;;;9.90;3.00;;;19.40;95.20;;;;;;4954408;28;20083;-65